Time;durP1;ratioP1;P1;durP2;ratioP2;P2;SDS_P1;SDS_P2;PMS_P1;PMS_P2;Temp;Humidity;BMP_temperature;BMP_pressure;BME280_temperature;BME280_humidity;BME280_pressure;Samples;Min_cycle;Max_cycle;Signal;HPM_P1;HPM_P2
2021/10/08 00:02:55;;;;;;;14.90;6.87;;;5.80;99.90;;;;;;4346596;33;20176;-66
2021/10/08 00:06:08;;;;;;;17.23;7.20;;;5.80;99.90;;;;;;4346790;33;20225;-65
2021/10/08 00:08:54;;;;;;;16.43;6.63;;;5.80;99.90;;;;;;4347953;33;20494;-65
2021/10/08 00:11:36;;;;;;;15.10;6.67;;;5.80;99.90;;;;;;4347854;33;20163;-66
2021/10/08 00:14:06;;;;;;;12.60;6.87;;;5.70;99.90;;;;;;4347644;33;20214;-68
2021/10/08 00:16:39;;;;;;;14.83;6.77;;;5.70;99.90;;;;;;4347650;33;20217;-65
2021/10/08 00:19:30;;;;;;;15.13;7.07;;;5.70;99.90;;;;;;4348183;33;20400;-66
2021/10/08 00:22:17;;;;;;;16.33;7.43;;;5.60;99.90;;;;;;4347876;33;20146;-66
2021/10/08 00:25:08;;;;;;;16.40;6.60;;;5.60;99.90;;;;;;4348160;33;20195;-66
2021/10/08 00:28:02;;;;;;;15.37;6.50;;;5.50;99.90;;;;;;4346061;33;20419;-66
2021/10/08 00:30:34;;;;;;;13.47;6.67;;;5.50;99.90;;;;;;4346392;33;20190;-66
2021/10/08 00:33:02;;;;;;;14.83;6.37;;;5.50;99.90;;;;;;4359704;32;20189;-65
2021/10/08 00:35:29;;;;;;;15.60;6.33;;;5.50;99.90;;;;;;4393076;32;20134;-64
2021/10/08 00:37:56;;;;;;;12.47;6.33;;;5.50;99.90;;;;;;4402278;32;20206;-64
2021/10/08 00:40:25;;;;;;;16.00;6.50;;;5.40;99.90;;;;;;4409980;32;20146;-64
2021/10/08 00:42:51;;;;;;;17.23;6.67;;;5.40;99.90;;;;;;4408352;32;20193;-65
2021/10/08 00:45:18;;;;;;;15.63;6.70;;;5.40;99.90;;;;;;4408056;32;20202;-65
2021/10/08 00:47:55;;;;;;;12.60;6.23;;;5.40;99.90;;;;;;4409890;32;20140;-65
2021/10/08 00:50:22;;;;;;;12.13;6.10;;;5.40;99.90;;;;;;4409662;32;20143;-65
2021/10/08 00:52:49;;;;;;;15.73;6.33;;;5.30;99.90;;;;;;4408356;32;20191;-65
2021/10/08 00:55:16;;;;;;;13.30;6.27;;;5.40;99.90;;;;;;4410041;32;20137;-65
2021/10/08 00:57:48;;;;;;;18.30;6.90;;;5.30;99.90;;;;;;4409478;32;20208;-65
2021/10/08 01:00:16;;;;;;;16.23;6.93;;;5.30;99.90;;;;;;4407817;32;20193;-65
2021/10/08 01:02:44;;;;;;;11.87;6.30;;;5.30;99.90;;;;;;4409714;32;20150;-65
2021/10/08 01:05:11;;;;;;;16.27;6.00;;;5.30;99.90;;;;;;4408074;32;20172;-65
2021/10/08 01:07:38;;;;;;;14.77;6.23;;;5.30;99.90;;;;;;4410055;32;20136;-65
2021/10/08 01:10:06;;;;;;;12.90;5.57;;;5.30;99.90;;;;;;4409926;32;20179;-66
2021/10/08 01:12:34;;;;;;;14.87;6.33;;;5.20;99.90;;;;;;4418026;32;20160;-65
2021/10/08 01:15:01;;;;;;;15.80;6.77;;;5.20;99.90;;;;;;4409477;32;20563;-65
2021/10/08 01:17:28;;;;;;;11.43;5.73;;;5.10;99.90;;;;;;4408002;32;20135;-66
2021/10/08 01:20:08;;;;;;;15.97;6.23;;;5.00;99.90;;;;;;4410211;32;20137;-64
2021/10/08 01:22:35;;;;;;;14.53;6.10;;;5.20;99.90;;;;;;4412359;32;20145;-65
2021/10/08 01:25:03;;;;;;;16.23;5.70;;;5.10;99.90;;;;;;4411984;32;20180;-65
2021/10/08 01:27:30;;;;;;;15.17;6.30;;;5.10;99.90;;;;;;4412324;32;20221;-65
2021/10/08 01:29:58;;;;;;;13.73;5.97;;;5.10;99.90;;;;;;4412422;32;20142;-66
2021/10/08 01:32:29;;;;;;;14.87;5.93;;;5.10;99.90;;;;;;4412120;32;20409;-65
2021/10/08 01:34:57;;;;;;;15.20;5.97;;;5.10;99.90;;;;;;4410680;32;20138;-64
2021/10/08 01:37:23;;;;;;;12.77;5.97;;;5.10;99.90;;;;;;4410420;32;20154;-65
2021/10/08 01:39:50;;;;;;;10.97;5.80;;;5.00;99.90;;;;;;4412111;32;20405;-65
2021/10/08 01:42:18;;;;;;;10.70;5.47;;;5.00;99.90;;;;;;4410496;32;20201;-64
2021/10/08 01:44:45;;;;;;;14.50;6.13;;;5.00;99.90;;;;;;4411919;32;20461;-65
2021/10/08 01:47:12;;;;;;;11.90;5.70;;;4.90;99.90;;;;;;4410439;32;20232;-65
2021/10/08 01:49:38;;;;;;;14.73;5.50;;;5.00;99.90;;;;;;4411666;32;20157;-64
2021/10/08 01:52:06;;;;;;;13.33;5.70;;;4.90;99.90;;;;;;4410556;32;20520;-64
2021/10/08 01:54:33;;;;;;;11.33;5.50;;;4.90;99.90;;;;;;4412013;32;20132;-64
2021/10/08 01:56:59;;;;;;;11.40;5.80;;;4.90;99.90;;;;;;4412076;32;20219;-64
2021/10/08 01:59:26;;;;;;;14.63;6.00;;;4.90;99.90;;;;;;4410785;32;20163;-65
2021/10/08 02:01:53;;;;;;;12.40;5.73;;;4.80;99.90;;;;;;4410152;32;20146;-65
2021/10/08 02:04:20;;;;;;;12.53;6.60;;;4.80;99.90;;;;;;4410297;32;20143;-66
2021/10/08 02:06:46;;;;;;;13.20;5.90;;;4.80;99.90;;;;;;4411934;32;20197;-65
2021/10/08 02:09:13;;;;;;;13.63;5.97;;;4.80;99.90;;;;;;4411865;32;20133;-64
2021/10/08 02:11:40;;;;;;;14.00;5.53;;;4.80;99.90;;;;;;4410309;32;20188;-65
2021/10/08 02:14:07;;;;;;;15.53;6.10;;;4.70;99.90;;;;;;4411862;32;20133;-66
2021/10/08 02:16:34;;;;;;;13.63;5.87;;;4.70;99.90;;;;;;4409425;32;20189;-65
2021/10/08 02:19:00;;;;;;;10.03;5.87;;;4.70;99.90;;;;;;4411710;32;20132;-65
2021/10/08 02:21:27;;;;;;;11.83;5.90;;;4.60;99.90;;;;;;4411706;32;20136;-66
2021/10/08 02:23:54;;;;;;;13.57;6.63;;;4.70;99.90;;;;;;4411829;32;20131;-65
2021/10/08 02:26:21;;;;;;;10.83;5.50;;;4.60;99.90;;;;;;4411328;32;20444;-64
2021/10/08 02:28:48;;;;;;;10.50;5.50;;;4.60;99.90;;;;;;4410122;32;20132;-65
2021/10/08 02:31:16;;;;;;;12.47;6.10;;;4.50;99.90;;;;;;4409053;32;20188;-65
2021/10/08 02:33:43;;;;;;;13.07;6.10;;;4.50;99.90;;;;;;4409893;32;20507;-65
2021/10/08 02:36:16;;;;;;;13.00;6.03;;;4.50;99.90;;;;;;4411355;32;20145;-65
2021/10/08 02:38:52;;;;;;;11.13;5.63;;;4.50;99.90;;;;;;4408942;32;20209;-64
2021/10/08 02:41:27;;;;;;;12.10;5.97;;;4.50;99.90;;;;;;4411461;32;20156;-64
2021/10/08 02:43:54;;;;;;;11.27;5.63;;;4.50;99.90;;;;;;4409873;32;20186;-65
2021/10/08 02:46:20;;;;;;;14.93;5.70;;;4.40;99.90;;;;;;4409580;32;20196;-65
2021/10/08 02:48:47;;;;;;;12.83;5.63;;;4.40;99.90;;;;;;4411647;32;20133;-64
2021/10/08 02:51:14;;;;;;;13.03;5.97;;;4.40;99.90;;;;;;4409341;32;20523;-66
2021/10/08 02:53:41;;;;;;;10.07;5.60;;;4.40;99.90;;;;;;4411425;32;20181;-65
2021/10/08 02:56:08;;;;;;;11.10;5.70;;;4.40;99.90;;;;;;4417100;32;20304;-65
2021/10/08 02:58:36;;;;;;;11.07;5.30;;;4.40;99.90;;;;;;4410842;32;20212;-64
2021/10/08 03:01:03;;;;;;;12.97;5.97;;;4.30;99.90;;;;;;4408680;32;20199;-63
2021/10/08 03:03:30;;;;;;;10.30;5.90;;;4.30;99.90;;;;;;4410519;32;20192;-64
2021/10/08 03:05:57;;;;;;;12.97;5.77;;;4.30;99.90;;;;;;4410348;32;20413;-63
2021/10/08 03:08:25;;;;;;;11.80;6.00;;;4.30;99.90;;;;;;4410995;32;20236;-64
2021/10/08 03:10:51;;;;;;;12.50;5.53;;;4.30;99.90;;;;;;4409195;32;20134;-63
2021/10/08 03:13:18;;;;;;;13.50;6.10;;;4.30;99.90;;;;;;4409395;32;20180;-65
2021/10/08 03:15:45;;;;;;;10.57;5.67;;;4.20;99.90;;;;;;4408854;32;20197;-64
2021/10/08 03:18:12;;;;;;;11.83;6.07;;;4.20;99.90;;;;;;4409395;32;20145;-64
2021/10/08 03:20:39;;;;;;;11.10;5.40;;;4.20;99.90;;;;;;4410886;32;20193;-64
2021/10/08 03:23:05;;;;;;;17.97;5.83;;;4.10;99.90;;;;;;4410454;32;20208;-64
2021/10/08 03:25:32;;;;;;;13.43;5.67;;;4.10;99.90;;;;;;4410947;32;20647;-62
2021/10/08 03:27:59;;;;;;;10.00;5.60;;;4.10;99.90;;;;;;4416300;32;20145;-64
2021/10/08 03:30:26;;;;;;;15.30;5.63;;;4.10;99.90;;;;;;4410368;32;20420;-63
2021/10/08 03:32:53;;;;;;;10.50;5.40;;;4.00;99.90;;;;;;4410501;32;20169;-65
2021/10/08 03:35:19;;;;;;;13.03;5.90;;;4.10;99.90;;;;;;4410514;32;20492;-64
2021/10/08 03:37:56;;;;;;;11.03;5.90;;;4.10;99.90;;;;;;4409288;32;20155;-63
2021/10/08 03:40:27;;;;;;;11.23;5.90;;;4.00;99.90;;;;;;4410020;32;20151;-63
2021/10/08 03:42:56;;;;;;;12.57;6.00;;;4.00;99.90;;;;;;4410177;32;20140;-63
2021/10/08 03:45:30;;;;;;;14.50;5.77;;;3.90;99.90;;;;;;4410748;32;20476;-65
2021/10/08 03:50:25;;;;;;;14.13;5.57;;;3.90;99.90;;;;;;4410500;32;20156;-63
2021/10/08 03:52:51;;;;;;;9.40;5.60;;;3.80;99.90;;;;;;4408508;32;20193;-63
2021/10/08 03:55:19;;;;;;;15.23;5.80;;;3.80;99.90;;;;;;4410544;32;20135;-63
2021/10/08 03:57:46;;;;;;;17.40;5.83;;;3.80;99.90;;;;;;4408047;32;20207;-64
2021/10/08 04:00:13;;;;;;;12.30;5.60;;;3.70;99.90;;;;;;4416062;32;20156;-64
2021/10/08 04:02:39;;;;;;;13.97;5.97;;;3.70;99.90;;;;;;4425153;32;20145;-63
2021/10/08 04:05:07;;;;;;;11.17;5.40;;;3.70;99.90;;;;;;4425270;32;20139;-64
2021/10/08 04:07:33;;;;;;;13.63;5.70;;;3.70;99.90;;;;;;4425352;32;20231;-63
2021/10/08 04:10:00;;;;;;;12.90;6.00;;;3.70;99.90;;;;;;4423838;32;20188;-64
2021/10/08 04:12:27;;;;;;;12.70;5.13;;;3.70;99.90;;;;;;4423687;32;20231;-63
2021/10/08 04:14:53;;;;;;;13.70;5.40;;;3.70;99.90;;;;;;4423533;32;20492;-63
2021/10/08 04:17:20;;;;;;;13.13;5.80;;;3.60;99.90;;;;;;4425405;32;20182;-63
2021/10/08 04:19:47;;;;;;;13.90;5.83;;;3.60;99.90;;;;;;4425388;32;20195;-63
2021/10/08 04:22:14;;;;;;;12.07;5.97;;;3.60;99.90;;;;;;4423470;32;20467;-64
2021/10/08 04:24:40;;;;;;;14.73;6.00;;;3.60;99.90;;;;;;4423783;32;20136;-64
2021/10/08 04:27:07;;;;;;;10.90;5.57;;;3.50;99.90;;;;;;4423177;32;20163;-64
2021/10/08 04:29:34;;;;;;;17.10;6.17;;;3.50;99.90;;;;;;4423320;32;20192;-65
2021/10/08 04:32:01;;;;;;;17.40;6.53;;;3.50;99.90;;;;;;4424406;32;20131;-65
2021/10/08 04:34:27;;;;;;;15.63;5.60;;;3.50;99.90;;;;;;4423557;32;20158;-65
2021/10/08 04:36:54;;;;;;;13.40;6.13;;;3.50;99.90;;;;;;4424769;32;20151;-65
2021/10/08 04:39:21;;;;;;;11.17;5.60;;;3.50;99.90;;;;;;4425459;32;20183;-64
2021/10/08 04:41:48;;;;;;;13.03;5.57;;;3.50;99.90;;;;;;4425412;32;20131;-63
2021/10/08 04:44:14;;;;;;;17.93;6.53;;;3.50;99.90;;;;;;4420249;32;20153;-64
2021/10/08 04:46:41;;;;;;;12.03;6.07;;;3.40;99.90;;;;;;4412549;32;20147;-64
2021/10/08 04:49:08;;;;;;;13.00;6.27;;;3.40;99.90;;;;;;4409877;32;20135;-65
2021/10/08 04:51:35;;;;;;;13.60;6.27;;;3.40;99.90;;;;;;4408242;32;20457;-64
2021/10/08 04:54:02;;;;;;;12.23;6.20;;;3.40;99.90;;;;;;4408405;32;20200;-65
2021/10/08 04:56:33;;;;;;;13.30;6.27;;;3.40;99.90;;;;;;4412250;32;20239;-65
2021/10/08 04:59:00;;;;;;;12.20;6.43;;;3.40;99.90;;;;;;4412636;32;20197;-64
2021/10/08 05:01:28;;;;;;;10.83;5.80;;;3.40;99.90;;;;;;4411983;32;20193;-65
2021/10/08 05:03:56;;;;;;;11.53;5.60;;;3.40;99.90;;;;;;4412868;32;20503;-64
2021/10/08 05:06:22;;;;;;;11.83;6.50;;;3.40;99.90;;;;;;4412823;32;20136;-64
2021/10/08 05:08:49;;;;;;;12.90;6.57;;;3.40;99.90;;;;;;4412703;32;20184;-65
2021/10/08 05:11:16;;;;;;;11.83;6.13;;;3.40;99.90;;;;;;4412688;32;20139;-65
2021/10/08 05:13:43;;;;;;;12.43;6.33;;;3.40;99.90;;;;;;4410845;32;20555;-65
2021/10/08 05:16:10;;;;;;;14.40;6.87;;;3.40;99.90;;;;;;4413995;32;20148;-64
2021/10/08 05:18:37;;;;;;;13.23;5.73;;;3.50;99.90;;;;;;4417287;32;20493;-64
2021/10/08 05:21:04;;;;;;;11.63;6.03;;;3.50;99.90;;;;;;4410764;32;20171;-64
2021/10/08 05:23:30;;;;;;;12.30;5.87;;;3.60;99.90;;;;;;4411976;32;20190;-63
2021/10/08 05:25:57;;;;;;;13.17;6.37;;;3.60;99.90;;;;;;4412193;32;20429;-64
2021/10/08 05:28:26;;;;;;;13.07;5.90;;;3.60;99.90;;;;;;4410879;32;20465;-65
2021/10/08 05:30:53;;;;;;;14.13;6.30;;;3.70;99.90;;;;;;4410482;32;20407;-66
2021/10/08 05:33:20;;;;;;;11.43;5.93;;;3.60;99.90;;;;;;4410291;32;20136;-65
2021/10/08 05:35:47;;;;;;;13.07;6.30;;;3.70;99.90;;;;;;4415704;32;20151;-65
2021/10/08 05:38:13;;;;;;;12.33;6.20;;;3.70;99.90;;;;;;4413536;32;20190;-64
2021/10/08 05:40:40;;;;;;;13.23;5.73;;;3.70;99.90;;;;;;4408185;32;20158;-64
2021/10/08 05:43:07;;;;;;;12.60;6.40;;;3.70;99.90;;;;;;4411578;32;20190;-65
2021/10/08 05:45:34;;;;;;;12.87;6.17;;;3.70;99.90;;;;;;4411920;32;20192;-64
2021/10/08 05:48:01;;;;;;;10.27;6.00;;;3.80;99.90;;;;;;4410396;32;20144;-64
2021/10/08 05:50:28;;;;;;;14.77;6.27;;;3.80;99.90;;;;;;4411152;32;20131;-64
2021/10/08 05:52:55;;;;;;;11.93;5.83;;;3.90;99.90;;;;;;4418612;32;20165;-66
2021/10/08 05:55:23;;;;;;;14.87;5.87;;;3.90;99.90;;;;;;4416261;32;20229;-65
2021/10/08 05:57:54;;;;;;;12.73;5.43;;;3.90;99.90;;;;;;4411490;32;20229;-65
2021/10/08 06:00:21;;;;;;;15.33;5.83;;;4.00;99.90;;;;;;4411085;32;20136;-66
2021/10/08 06:02:48;;;;;;;12.90;5.77;;;4.10;99.90;;;;;;4411475;32;20192;-66
2021/10/08 06:05:15;;;;;;;13.93;5.97;;;4.10;99.90;;;;;;4411817;32;20450;-65
2021/10/08 06:07:42;;;;;;;12.33;6.00;;;4.10;99.90;;;;;;4410847;32;20137;-65
2021/10/08 06:10:09;;;;;;;14.40;5.90;;;4.10;99.90;;;;;;4411054;32;20149;-65
2021/10/08 06:12:35;;;;;;;15.97;6.30;;;4.20;99.90;;;;;;4411958;32;20133;-65
2021/10/08 06:15:03;;;;;;;16.73;6.10;;;4.30;99.90;;;;;;4411358;32;20420;-65
2021/10/08 06:17:30;;;;;;;15.87;6.07;;;4.40;99.90;;;;;;4411183;32;20139;-65
2021/10/08 06:19:57;;;;;;;11.83;6.33;;;4.50;99.90;;;;;;4411662;32;20200;-64
2021/10/08 06:22:23;;;;;;;14.97;6.10;;;4.60;99.90;;;;;;4409226;32;20334;-65
2021/10/08 06:24:50;;;;;;;15.87;6.07;;;4.60;99.90;;;;;;4410102;32;20419;-64
2021/10/08 06:27:17;;;;;;;12.60;5.73;;;4.70;99.90;;;;;;4410571;32;20459;-65
2021/10/08 06:29:44;;;;;;;13.63;6.30;;;4.80;99.90;;;;;;4411280;32;20502;-65
2021/10/08 06:32:10;;;;;;;13.63;5.90;;;4.80;99.90;;;;;;4411300;32;20145;-65
2021/10/08 06:34:37;;;;;;;12.53;5.90;;;4.90;99.90;;;;;;4411420;32;20139;-65
2021/10/08 06:37:04;;;;;;;12.00;6.37;;;4.90;99.90;;;;;;4409480;32;20187;-64
2021/10/08 06:39:30;;;;;;;9.50;5.70;;;5.00;99.90;;;;;;4409967;32;20252;-66
2021/10/08 06:42:01;;;;;;;12.93;5.90;;;5.00;99.90;;;;;;4417079;32;20148;-65
2021/10/08 06:44:28;;;;;;;12.73;6.23;;;5.10;99.90;;;;;;4410688;32;20407;-64
2021/10/08 06:46:55;;;;;;;15.10;6.40;;;5.10;99.90;;;;;;4410899;32;20345;-65
2021/10/08 06:49:22;;;;;;;12.43;6.20;;;5.30;99.90;;;;;;4411131;32;20450;-65
2021/10/08 06:51:49;;;;;;;14.80;6.10;;;5.40;99.90;;;;;;4409313;32;20183;-65
2021/10/08 06:54:16;;;;;;;14.23;6.03;;;5.50;99.90;;;;;;4411048;32;20191;-65
2021/10/08 06:56:42;;;;;;;14.57;6.13;;;5.60;99.90;;;;;;4410454;32;20218;-64
2021/10/08 06:59:09;;;;;;;17.07;6.37;;;5.70;99.90;;;;;;4410741;32;20139;-63
2021/10/08 07:01:36;;;;;;;16.07;6.43;;;5.80;99.90;;;;;;4408765;32;20205;-64
2021/10/08 07:04:03;;;;;;;17.10;6.17;;;5.90;99.90;;;;;;4410448;32;20135;-64
2021/10/08 07:06:30;;;;;;;15.93;6.73;;;6.00;99.90;;;;;;4410718;32;20143;-64
2021/10/08 07:08:57;;;;;;;16.70;6.37;;;6.10;99.90;;;;;;4408730;32;20458;-64
2021/10/08 07:11:24;;;;;;;13.50;6.23;;;6.10;99.90;;;;;;4409917;32;20232;-65
2021/10/08 07:13:52;;;;;;;16.37;6.27;;;6.20;99.90;;;;;;4408738;32;20480;-65
2021/10/08 07:16:19;;;;;;;18.23;6.80;;;6.30;99.90;;;;;;4418426;32;20204;-64
2021/10/08 07:18:53;;;;;;;13.67;6.13;;;6.40;99.90;;;;;;4419446;32;20438;-63
2021/10/08 07:21:20;;;;;;;14.13;6.13;;;6.40;99.90;;;;;;4424168;32;20172;-64
2021/10/08 07:23:47;;;;;;;15.57;6.63;;;6.50;99.90;;;;;;4424206;32;20146;-65
2021/10/08 07:26:16;;;;;;;13.97;6.53;;;6.60;99.90;;;;;;4423788;32;20250;-65
2021/10/08 07:28:44;;;;;;;20.10;7.13;;;6.70;99.90;;;;;;4425621;32;20142;-64
2021/10/08 07:31:11;;;;;;;13.80;6.67;;;6.80;99.90;;;;;;4424694;32;20219;-64
2021/10/08 07:33:41;;;;;;;12.90;6.47;;;6.90;99.90;;;;;;4424067;32;20158;-64
2021/10/08 07:36:09;;;;;;;16.50;6.53;;;7.00;99.90;;;;;;4424010;32;20139;-64
2021/10/08 07:38:36;;;;;;;15.07;6.73;;;7.10;99.90;;;;;;4423590;32;20158;-64
2021/10/08 07:41:03;;;;;;;17.33;7.10;;;7.20;99.90;;;;;;4425462;32;20337;-63
2021/10/08 07:43:30;;;;;;;13.70;6.33;;;7.30;99.90;;;;;;4423648;32;20518;-64
2021/10/08 07:45:57;;;;;;;13.63;6.63;;;7.30;99.90;;;;;;4423273;32;20138;-65
2021/10/08 07:48:24;;;;;;;14.43;6.60;;;7.50;99.90;;;;;;4425177;32;20494;-65
2021/10/08 07:50:50;;;;;;;17.53;6.83;;;7.60;99.90;;;;;;4425337;32;20147;-65
2021/10/08 07:53:17;;;;;;;15.03;6.87;;;7.70;99.90;;;;;;4423436;32;20132;-65
2021/10/08 07:55:44;;;;;;;18.60;7.20;;;7.90;99.90;;;;;;4422988;32;20438;-64
2021/10/08 07:58:11;;;;;;;14.73;6.40;;;8.30;99.90;;;;;;4425195;32;20533;-65
2021/10/08 08:00:37;;;;;;;14.27;6.47;;;8.90;99.90;;;;;;4424874;32;20131;-65
2021/10/08 08:03:04;;;;;;;15.37;6.63;;;9.50;99.90;;;;;;4425294;32;20139;-64
2021/10/08 08:05:31;;;;;;;16.00;6.30;;;10.00;99.90;;;;;;4423096;32;20188;-65
2021/10/08 08:07:58;;;;;;;13.20;6.47;;;10.40;99.90;;;;;;4423382;32;20142;-64
2021/10/08 08:10:25;;;;;;;14.97;6.47;;;10.60;99.90;;;;;;4423486;32;20131;-65
2021/10/08 08:12:51;;;;;;;13.87;6.23;;;11.00;99.90;;;;;;4425122;32;20509;-64
2021/10/08 08:15:19;;;;;;;14.80;6.73;;;11.30;99.90;;;;;;4424017;32;20132;-64
2021/10/08 08:17:46;;;;;;;15.00;6.80;;;11.50;99.90;;;;;;4423425;32;20453;-65
2021/10/08 08:20:13;;;;;;;14.53;6.50;;;11.90;99.90;;;;;;4424763;32;20135;-65
2021/10/08 08:22:40;;;;;;;15.53;6.60;;;12.20;99.00;;;;;;4424295;32;20228;-66
2021/10/08 08:25:07;;;;;;;16.03;6.30;;;12.60;98.30;;;;;;4423200;32;20135;-66
2021/10/08 08:27:34;;;;;;;15.97;6.60;;;12.80;96.30;;;;;;4424100;32;20224;-65
2021/10/08 08:30:04;;;;;;;12.83;6.50;;;13.10;94.90;;;;;;4425119;32;20192;-64
2021/10/08 08:32:32;;;;;;;15.40;5.97;;;13.30;94.20;;;;;;4428181;32;20147;-64
2021/10/08 08:34:59;;;;;;;16.83;6.27;;;13.50;93.20;;;;;;4426585;32;20230;-65
2021/10/08 08:37:26;;;;;;;12.43;6.00;;;13.70;92.40;;;;;;4427254;32;20416;-65
2021/10/08 08:39:53;;;;;;;14.20;6.50;;;14.10;92.10;;;;;;4427674;32;20139;-65
2021/10/08 08:42:21;;;;;;;16.63;6.50;;;14.40;91.10;;;;;;4427892;32;20139;-66
2021/10/08 08:44:49;;;;;;;13.53;5.97;;;14.50;88.90;;;;;;4426267;32;20180;-65
2021/10/08 08:47:21;;;;;;;16.53;7.17;;;14.80;87.80;;;;;;4427903;32;20138;-64
2021/10/08 08:49:49;;;;;;;23.83;6.97;;;15.30;87.40;;;;;;4428116;32;20236;-65
2021/10/08 08:52:17;;;;;;;14.17;6.50;;;15.70;85.30;;;;;;4427088;32;20441;-64
2021/10/08 08:54:45;;;;;;;19.53;7.20;;;16.00;86.10;;;;;;4426056;32;20196;-64
2021/10/08 08:57:18;;;;;;;13.80;6.37;;;16.40;81.50;;;;;;4425880;32;20227;-65
2021/10/08 09:00:04;;;;;;;12.93;6.47;;;16.70;78.20;;;;;;4426093;32;20152;-66
2021/10/08 09:02:32;;;;;;;16.67;6.93;;;17.00;77.50;;;;;;4427802;32;20231;-65
2021/10/08 09:04:59;;;;;;;16.67;7.43;;;17.20;73.20;;;;;;4425791;32;20146;-66
2021/10/08 09:07:34;;;;;;;13.20;6.50;;;17.40;70.40;;;;;;4427682;32;20147;-65
2021/10/08 09:10:14;;;;;;;15.13;6.70;;;17.50;68.80;;;;;;4427919;32;20135;-65
2021/10/08 09:12:43;;;;;;;15.97;6.97;;;17.70;69.10;;;;;;4426955;32;20185;-66
2021/10/08 09:15:11;;;;;;;15.70;6.93;;;17.80;68.10;;;;;;4426031;32;20165;-66
2021/10/08 09:17:38;;;;;;;14.97;6.73;;;17.90;65.60;;;;;;4426786;32;20131;-65
2021/10/08 09:20:13;;;;;;;18.57;7.20;;;18.00;63.80;;;;;;4425337;32;20442;-65
2021/10/08 09:22:40;;;;;;;14.03;7.00;;;18.00;64.10;;;;;;4426942;32;20207;-66
2021/10/08 09:25:15;;;;;;;15.70;7.13;;;18.30;62.90;;;;;;4427523;32;20138;-65
2021/10/08 09:27:45;;;;;;;15.27;7.47;;;18.50;62.40;;;;;;4425213;32;20162;-65
2021/10/08 09:30:13;;;;;;;16.10;7.03;;;18.70;61.00;;;;;;4427218;32;20158;-66
2021/10/08 09:32:41;;;;;;;18.80;7.87;;;18.90;59.60;;;;;;4427016;32;20392;-65
2021/10/08 09:35:09;;;;;;;15.13;7.03;;;18.90;59.40;;;;;;4425358;32;20136;-65
2021/10/08 09:37:37;;;;;;;15.53;7.30;;;19.30;59.10;;;;;;4426191;32;20154;-66
2021/10/08 09:40:20;;;;;;;14.53;7.43;;;19.60;58.50;;;;;;4427165;32;20170;-65
2021/10/08 09:42:47;;;;;;;15.17;6.83;;;19.90;57.30;;;;;;4425223;32;20508;-66
2021/10/08 09:45:14;;;;;;;16.57;7.53;;;19.90;56.80;;;;;;4427170;32;20188;-66
2021/10/08 09:47:59;;;;;;;18.70;7.13;;;19.70;53.90;;;;;;4425181;32;20556;-66
2021/10/08 09:50:26;;;;;;;16.43;7.00;;;19.70;52.70;;;;;;4426506;32;20188;-65
2021/10/08 09:53:16;;;;;;;13.47;6.67;;;19.40;52.20;;;;;;4427230;32;20410;-65
2021/10/08 09:55:42;;;;;;;14.17;6.60;;;19.10;52.80;;;;;;4426864;32;20204;-66
2021/10/08 09:58:09;;;;;;;14.47;6.03;;;19.20;52.20;;;;;;4425298;32;20443;-65
2021/10/08 10:00:43;;;;;;;13.73;6.50;;;18.90;51.70;;;;;;4426975;32;20193;-65
2021/10/08 10:03:12;;;;;;;13.50;6.23;;;19.00;51.50;;;;;;4427253;32;20476;-65
2021/10/08 10:05:39;;;;;;;11.33;5.87;;;19.50;51.70;;;;;;4426940;32;20135;-67
2021/10/08 10:08:07;;;;;;;15.97;6.57;;;19.80;50.60;;;;;;4426924;32;20184;-66
2021/10/08 10:10:35;;;;;;;13.23;6.13;;;20.10;49.90;;;;;;4426972;32;20143;-65
2021/10/08 10:13:08;;;;;;;13.63;6.00;;;20.50;49.60;;;;;;4427141;32;20181;-65
2021/10/08 10:15:38;;;;;;;14.73;6.03;;;20.90;49.70;;;;;;4426845;32;20140;-64
2021/10/08 10:18:10;;;;;;;12.67;6.17;;;20.70;47.00;;;;;;4425370;32;20166;-66
2021/10/08 10:20:38;;;;;;;13.87;6.03;;;20.00;47.80;;;;;;4426919;32;20180;-66
2021/10/08 10:23:07;;;;;;;14.77;5.83;;;20.20;48.30;;;;;;4426111;32;20140;-66
2021/10/08 10:25:35;;;;;;;14.20;5.97;;;20.50;47.50;;;;;;4425111;32;20188;-67
2021/10/08 10:28:04;;;;;;;13.23;6.10;;;20.50;46.80;;;;;;4425180;32;20199;-65
2021/10/08 10:30:31;;;;;;;16.90;6.33;;;20.80;47.00;;;;;;4425260;32;20193;-65
2021/10/08 10:32:59;;;;;;;13.43;6.30;;;21.40;46.50;;;;;;4426587;32;20162;-66
2021/10/08 10:35:44;;;;;;;13.03;6.00;;;21.10;45.90;;;;;;4426737;32;20279;-67
2021/10/08 10:38:24;;;;;;;16.07;5.77;;;21.20;46.10;;;;;;4424297;32;20184;-66
2021/10/08 10:41:24;;;;;;;12.73;6.00;;;21.40;46.00;;;;;;4426398;32;20131;-67
2021/10/08 10:43:56;;;;;;;13.40;5.87;;;21.60;45.00;;;;;;4347599;33;20200;-65
2021/10/08 10:49:58;;;;;;;13.57;6.10;;;22.30;44.60;;;;;;4347535;33;20164;-65
2021/10/08 10:52:03;;;;;;;14.80;6.10;;;22.40;44.20;;;;;;4341250;33;20183;-66
2021/10/08 10:54:48;;;;;;;15.47;6.10;;;22.80;44.80;;;;;;4348848;33;20543;-65
2021/10/08 10:57:29;;;;;;;11.80;5.90;;;23.30;43.50;;;;;;4347196;33;20226;-66
2021/10/08 11:00:26;;;;;;;11.60;6.30;;;22.80;43.30;;;;;;4348190;33;20156;-66
2021/10/08 11:03:12;;;;;;;11.30;6.03;;;22.90;43.00;;;;;;4348551;33;20214;-66
2021/10/08 11:06:00;;;;;;;11.23;6.23;;;23.30;42.50;;;;;;4347228;33;20140;-65
2021/10/08 11:08:27;;;;;;;15.33;6.87;;;23.50;42.40;;;;;;4347154;33;20491;-65
2021/10/08 11:10:59;;;;;;;15.77;6.70;;;23.70;41.40;;;;;;4347044;33;20199;-66
2021/10/08 11:13:28;;;;;;;15.43;6.80;;;23.80;40.70;;;;;;4346829;33;20153;-66
2021/10/08 11:16:00;;;;;;;15.70;6.97;;;23.80;40.90;;;;;;4348222;33;20140;-66
2021/10/08 11:18:57;;;;;;;9.93;6.68;;;24.40;39.80;;;;;;4352058;32;20163;-66
2021/10/08 11:21:30;;;;;;;10.68;6.95;;;24.50;38.50;;;;;;4346799;33;20160;-67
2021/10/08 11:24:23;;;;;;;14.40;7.05;;;24.30;37.90;;;;;;4348404;33;20303;-66
2021/10/08 11:26:59;;;;;;;15.48;7.40;;;24.10;38.20;;;;;;4346643;33;20479;-66
2021/10/08 11:29:30;;;;;;;18.10;7.60;;;24.20;37.50;;;;;;4348033;33;20156;-66
2021/10/08 11:32:05;;;;;;;13.73;7.45;;;25.00;37.80;;;;;;4347737;33;20489;-65
2021/10/08 11:34:33;;;;;;;14.15;7.55;;;25.50;35.90;;;;;;4348325;33;20148;-66
2021/10/08 11:37:01;;;;;;;18.95;7.32;;;26.30;35.50;;;;;;4346336;33;20165;-65
2021/10/08 11:39:29;;;;;;;10.27;7.12;;;27.20;35.30;;;;;;4348363;33;20148;-65
2021/10/08 11:42:12;;;;;;;13.70;6.72;;;27.20;34.30;;;;;;4348265;33;20140;-66
2021/10/08 11:45:11;;;;;;;15.20;7.50;;;27.50;33.30;;;;;;4346665;33;20164;-65
2021/10/08 11:52:58;;;;;;;13.23;7.05;;;28.70;31.60;;;;;;4348128;33;20160;-65
2021/10/08 11:55:27;;;;;;;11.10;6.90;;;28.80;31.40;;;;;;4346322;33;20506;-66
2021/10/08 11:58:12;;;;;;;14.02;6.85;;;28.90;31.50;;;;;;4387122;32;20151;-65
2021/10/08 12:00:50;;;;;;;11.63;6.37;;;28.70;31.20;;;;;;4425378;32;20135;-65
2021/10/08 12:03:21;;;;;;;11.85;6.57;;;29.00;31.70;;;;;;4425116;32;20357;-66
2021/10/08 12:05:58;;;;;;;13.73;6.50;;;28.60;31.30;;;;;;4423705;32;20195;-66
2021/10/08 12:08:36;;;;;;;12.05;5.82;;;28.90;31.40;;;;;;4424275;32;20235;-66
2021/10/08 12:11:11;;;;;;;13.18;6.15;;;29.00;31.20;;;;;;4424600;32;20183;-66
2021/10/08 12:13:55;;;;;;;15.70;5.70;;;29.20;30.70;;;;;;4425306;32;20141;-65
2021/10/08 12:16:35;;;;;;;11.50;5.75;;;29.40;30.70;;;;;;4422909;32;20410;-67
2021/10/08 12:19:03;;;;;;;12.75;5.78;;;29.60;30.70;;;;;;4423458;32;20464;-66
2021/10/08 12:21:32;;;;;;;12.27;5.57;;;29.20;31.10;;;;;;4424825;32;20147;-65
2021/10/08 12:24:05;;;;;;;10.45;5.55;;;29.40;31.10;;;;;;4422746;32;20139;-65
2021/10/08 12:26:34;;;;;;;10.77;5.35;;;29.50;30.80;;;;;;4424297;32;20414;-66
2021/10/08 12:29:07;;;;;;;12.77;7.05;;;29.40;31.30;;;;;;4424875;32;20165;-66
2021/10/08 12:32:04;;;;;;;11.18;5.53;;;29.40;31.30;;;;;;4423629;32;20138;-66
2021/10/08 12:34:41;;;;;;;10.38;5.25;;;29.40;30.50;;;;;;4423820;32;20161;-66
2021/10/08 12:37:17;;;;;;;9.60;5.12;;;28.50;30.90;;;;;;4424465;32;20146;-66
2021/10/08 12:40:13;;;;;;;10.75;4.80;;;28.10;31.60;;;;;;4425103;32;20406;-66
2021/10/08 12:42:43;;;;;;;7.97;4.80;;;27.80;31.90;;;;;;4423417;32;20180;-66
2021/10/08 12:45:36;;;;;;;9.82;5.00;;;27.50;32.80;;;;;;4422801;32;20173;-67
2021/10/08 12:48:12;;;;;;;12.13;4.62;;;26.90;32.70;;;;;;4423034;32;20199;-69
2021/10/08 12:50:39;;;;;;;8.32;4.50;;;26.80;33.10;;;;;;4423099;32;20462;-66
2021/10/08 12:53:20;;;;;;;8.70;4.50;;;26.40;33.60;;;;;;4424670;32;20139;-66
2021/10/08 12:55:48;;;;;;;8.88;4.60;;;24.80;35.10;;;;;;4424228;32;20227;-65
2021/10/08 12:58:34;;;;;;;8.88;4.53;;;23.50;36.90;;;;;;4423254;32;20128;-64
2021/10/08 13:01:07;;;;;;;11.33;4.57;;;22.20;38.70;;;;;;4423301;32;20127;-66
2021/10/08 13:03:44;;;;;;;9.37;3.97;;;20.40;41.80;;;;;;4423163;32;20158;-65
2021/10/08 13:06:17;;;;;;;10.40;4.47;;;19.60;43.40;;;;;;4424857;32;20161;-66
2021/10/08 13:09:02;;;;;;;9.00;3.97;;;19.30;44.50;;;;;;4424382;32;20409;-65
2021/10/08 13:11:43;;;;;;;9.13;4.30;;;18.80;45.30;;;;;;4423101;32;20143;-66